createdAt,value
2022-09-23T00:02:49.111Z,101248.69
2022-09-23T00:07:43.743Z,101273.84
2022-09-23T00:12:36.961Z,101285.75
2022-09-23T00:17:30.155Z,101286.50
2022-09-23T00:22:23.661Z,101281.25
2022-09-23T00:27:21.112Z,101249.06
2022-09-23T00:32:14.374Z,101282.56
2022-09-23T00:37:07.636Z,101292.09
2022-09-23T00:42:00.921Z,101299.59
2022-09-23T00:46:55.573Z,101316.06
2022-09-23T00:51:54.744Z,101259.28
2022-09-23T00:56:47.981Z,101289.56
2022-09-23T01:01:41.397Z,101193.84
2022-09-23T01:06:35.941Z,101355.84
2022-09-23T01:11:40.201Z,101354.75
2022-09-23T01:16:42.057Z,101364.72
2022-09-23T01:21:51.305Z,101356.75
2022-09-23T01:26:56.728Z,101375.50
2022-09-23T01:31:56.006Z,101354.84
2022-09-23T01:36:53.402Z,101347.03
2022-09-23T01:41:58.303Z,101359.88
2022-09-23T01:46:56.246Z,101349.81
2022-09-23T01:51:53.515Z,101378.34
2022-09-23T01:56:52.220Z,101365.00
2022-09-23T02:01:50.933Z,101340.97
2022-09-23T02:06:51.238Z,101379.66
2022-09-23T02:11:48.264Z,101381.22
2022-09-23T02:16:47.609Z,101382.44
2022-09-23T02:21:45.373Z,101363.69
2022-09-23T02:26:48.186Z,101331.94
2022-09-23T02:31:46.609Z,101324.94
2022-09-23T02:36:52.994Z,101332.41
2022-09-23T02:41:53.762Z,101376.09
2022-09-23T02:46:47.632Z,101362.03
2022-09-23T02:51:41.836Z,101388.97
2022-09-23T02:56:35.821Z,101361.47
2022-09-23T03:01:41.892Z,101351.97
2022-09-23T03:06:45.101Z,101394.94
2022-09-23T03:11:41.584Z,101384.00
2022-09-23T03:16:43.752Z,101394.34
2022-09-23T03:21:43.217Z,101360.19
2022-09-23T03:26:39.801Z,101352.91
2022-09-23T03:31:33.914Z,101365.31
2022-09-23T03:36:52.196Z,101391.16
2022-09-23T03:41:50.984Z,101408.22
2022-09-23T03:46:49.834Z,101405.59
2022-09-23T03:51:44.934Z,101388.59
2022-09-23T03:56:38.489Z,101388.44
2022-09-23T04:01:31.604Z,101411.41
2022-09-23T04:06:24.938Z,101353.44
2022-09-23T04:11:19.483Z,101324.06
2022-09-23T04:16:12.989Z,101326.03
2022-09-23T04:21:06.518Z,101294.91
2022-09-23T04:26:00.799Z,101378.00
2022-09-23T04:30:57.954Z,101399.56
2022-09-23T04:35:53.671Z,101410.00
2022-09-23T04:40:47.100Z,101385.25
2022-09-23T04:45:40.457Z,101413.44
2022-09-23T04:50:38.864Z,101412.91
2022-09-23T04:55:32.130Z,101412.56
2022-09-23T05:00:27.263Z,101303.09
2022-09-23T05:05:21.268Z,101399.28
2022-09-23T05:10:15.905Z,101434.22
2022-09-23T05:15:09.856Z,101394.78
2022-09-23T05:20:03.425Z,101409.91
2022-09-23T05:24:56.665Z,101349.81
2022-09-23T05:29:53.213Z,101444.94
2022-09-23T05:34:46.441Z,101421.09
2022-09-23T05:39:39.709Z,101430.97
2022-09-23T05:44:40.132Z,101438.91
2022-09-23T05:49:58.102Z,101366.09
2022-09-23T05:54:50.046Z,101295.94
2022-09-23T05:59:47.427Z,101385.03
2022-09-23T06:04:43.175Z,101317.22
2022-09-23T06:09:56.000Z,101260.47
2022-09-23T06:14:50.760Z,101358.75
2022-09-23T06:19:45.435Z,101471.16
2022-09-23T06:24:38.577Z,101432.91
2022-09-23T06:29:33.826Z,101478.56
2022-09-23T06:34:27.016Z,101482.84
2022-09-23T06:39:21.617Z,101453.97
2022-09-23T06:44:14.933Z,101465.38
2022-09-23T06:49:09.097Z,101367.53
2022-09-23T06:54:02.710Z,101431.00
2022-09-23T06:58:57.346Z,101439.88
2022-09-23T07:03:54.315Z,101478.66
2022-09-23T07:08:48.655Z,101491.84
2022-09-23T07:13:42.759Z,101500.19
2022-09-23T07:18:41.072Z,101515.31
2022-09-23T07:23:35.118Z,101529.41
2022-09-23T07:28:29.288Z,101506.13
2022-09-23T07:33:31.637Z,101519.00
2022-09-23T07:38:34.207Z,101490.03
2022-09-23T07:43:32.044Z,101519.56
2022-09-23T07:48:25.184Z,101513.78
2022-09-23T07:53:18.303Z,101482.00
2022-09-23T07:58:19.244Z,101397.59
2022-09-23T08:03:12.374Z,101499.16
2022-09-23T08:08:07.308Z,101502.78
2022-09-23T08:13:06.585Z,101474.72
2022-09-23T08:18:04.325Z,101503.59
2022-09-23T08:22:57.453Z,101496.44
2022-09-23T08:27:50.755Z,101325.22
2022-09-23T08:32:43.923Z,101508.56
2022-09-23T08:37:38.403Z,101499.00
2022-09-23T08:42:34.985Z,101450.63
2022-09-23T08:47:44.489Z,101465.78
2022-09-23T08:52:50.208Z,101468.19
2022-09-23T08:58:23.334Z,101511.09
2022-09-23T09:03:21.925Z,101492.19
2022-09-23T09:08:24.615Z,101415.41
2022-09-23T09:13:31.030Z,101456.28
2022-09-23T09:18:26.529Z,101507.75
2022-09-23T09:23:25.076Z,101506.50
2022-09-23T09:28:24.757Z,101516.25
2022-09-23T09:33:24.503Z,101469.00
2022-09-23T09:38:17.877Z,101518.59
2022-09-23T09:43:22.790Z,101500.84
2022-09-23T09:48:22.761Z,101502.22
2022-09-23T09:53:26.453Z,101504.56
2022-09-23T09:58:21.097Z,101489.53
2022-09-23T10:03:35.507Z,101524.75
2022-09-23T10:08:32.471Z,101520.66
2022-09-23T10:13:29.508Z,101528.69
2022-09-23T10:18:27.721Z,101520.22
2022-09-23T10:23:28.713Z,101505.97
2022-09-23T10:28:43.078Z,101371.56
2022-09-23T10:33:44.085Z,101499.16
2022-09-23T10:38:39.545Z,101499.66
2022-09-23T10:44:11.870Z,101469.84
2022-09-23T10:49:35.731Z,101481.72
2022-09-23T10:54:42.521Z,101466.13
2022-09-23T11:00:02.802Z,101465.03
2022-09-23T11:05:16.815Z,101435.66
2022-09-23T11:10:45.009Z,101356.00
2022-09-23T11:15:55.421Z,101448.25
2022-09-23T11:20:59.595Z,101430.63
2022-09-23T11:26:01.850Z,101199.16
2022-09-23T11:31:06.574Z,101391.38
2022-09-23T11:36:08.537Z,101397.44
2022-09-23T11:41:05.281Z,101386.44
2022-09-23T11:46:05.022Z,101378.75
2022-09-23T11:51:03.332Z,101318.63
2022-09-23T11:56:04.045Z,101371.00
2022-09-23T12:01:05.549Z,101320.00
2022-09-23T12:06:02.752Z,101354.72
2022-09-23T12:11:06.192Z,101319.81
2022-09-23T12:16:20.001Z,101354.28
2022-09-23T12:21:50.323Z,101353.28
2022-09-23T12:26:47.079Z,101346.00
2022-09-23T12:31:46.777Z,101323.28
2022-09-23T12:36:41.330Z,101332.94
2022-09-23T12:41:38.518Z,101341.50
2022-09-23T12:46:31.757Z,101335.13
2022-09-23T12:51:27.011Z,101312.25
2022-09-23T12:56:21.770Z,101293.00
2022-09-23T13:01:20.559Z,101315.38
2022-09-23T13:06:33.397Z,101299.00
2022-09-23T13:11:31.891Z,101289.50
2022-09-23T13:16:30.783Z,101320.00
2022-09-23T13:22:06.972Z,101312.50
2022-09-23T13:27:11.578Z,101316.38
2022-09-23T13:32:06.407Z,101289.16
2022-09-23T13:37:00.823Z,101265.88
2022-09-23T13:41:56.892Z,101245.06
2022-09-23T13:46:54.605Z,101268.25
2022-09-23T13:51:48.537Z,101300.97
2022-09-23T13:56:50.318Z,101273.56
2022-09-23T14:01:47.265Z,101282.03
2022-09-23T14:06:42.765Z,101292.31
2022-09-23T14:11:37.333Z,101272.97
2022-09-23T14:16:32.495Z,101274.09
2022-09-23T14:21:34.031Z,101244.75
2022-09-23T14:26:29.283Z,101276.03
2022-09-23T14:31:22.715Z,101137.94
2022-09-23T14:36:36.662Z,101288.56
2022-09-23T14:41:36.547Z,101267.78
2022-09-23T14:46:33.163Z,101296.47
2022-09-23T14:51:45.985Z,101270.50
2022-09-23T14:56:45.363Z,101317.13
2022-09-23T15:01:40.105Z,101274.44
2022-09-23T15:06:33.506Z,101331.22
2022-09-23T15:11:26.824Z,101291.88
2022-09-23T15:16:27.820Z,101289.44
2022-09-23T15:21:23.318Z,101328.66
2022-09-23T15:26:18.169Z,101268.97
2022-09-23T15:31:12.945Z,101323.25
2022-09-23T15:36:09.285Z,101272.03
2022-09-23T15:41:03.192Z,101307.97
2022-09-23T15:46:00.194Z,101244.91
2022-09-23T15:50:57.006Z,101233.44
2022-09-23T15:55:52.398Z,101344.22
2022-09-23T16:00:46.062Z,101355.50
2022-09-23T16:05:41.274Z,101352.78
2022-09-23T16:10:34.967Z,101357.44
2022-09-23T16:15:31.893Z,101298.06
2022-09-23T16:20:28.609Z,101313.84
2022-09-23T16:25:28.464Z,101347.09
2022-09-23T16:30:21.786Z,101346.56
2022-09-23T16:35:16.969Z,101341.53
2022-09-23T16:40:11.199Z,101316.97
2022-09-23T16:45:05.729Z,101360.22
2022-09-23T16:50:01.449Z,101261.66
2022-09-23T16:54:56.151Z,101301.88
2022-09-23T17:00:08.976Z,101360.72
2022-09-23T17:05:01.961Z,101363.91
2022-09-23T17:09:58.216Z,101341.91
2022-09-23T17:14:52.640Z,101325.03
2022-09-23T17:19:46.142Z,101367.06
2022-09-23T17:24:39.309Z,101375.00
2022-09-23T17:29:34.005Z,101375.66
2022-09-23T17:34:28.973Z,101371.59
2022-09-23T17:39:22.130Z,101359.06
2022-09-23T17:44:16.208Z,101339.13
2022-09-23T17:49:12.127Z,101341.00
2022-09-23T17:54:07.851Z,101350.78
2022-09-23T17:59:02.480Z,101374.41
2022-09-23T18:03:56.258Z,101348.03
2022-09-23T18:08:52.907Z,101291.13
2022-09-23T18:13:50.847Z,101393.47
2022-09-23T18:18:44.738Z,101325.16
2022-09-23T18:23:38.272Z,101383.03
2022-09-23T18:28:34.943Z,101362.19
2022-09-23T18:33:28.456Z,101402.78
2022-09-23T18:38:22.667Z,101383.16
2022-09-23T18:43:19.627Z,101361.97
2022-09-23T18:48:32.005Z,101363.75
2022-09-23T18:53:25.320Z,101389.22
2022-09-23T18:58:18.547Z,101383.16
2022-09-23T19:03:11.762Z,101397.91
2022-09-23T19:08:07.536Z,101390.91
2022-09-23T19:13:00.758Z,101392.91
2022-09-23T19:17:54.811Z,101403.56
2022-09-23T19:22:48.536Z,101391.91
2022-09-23T19:27:42.977Z,101405.81
2022-09-23T19:32:36.132Z,101377.13
2022-09-23T19:37:29.543Z,101406.56
2022-09-23T19:42:25.087Z,101343.03
2022-09-23T19:47:19.873Z,101367.50
2022-09-23T19:52:16.845Z,101402.66
2022-09-23T19:57:10.235Z,101382.53
2022-09-23T20:02:03.546Z,101332.81
2022-09-23T20:06:59.966Z,101407.47
2022-09-23T20:11:53.499Z,101402.59
2022-09-23T20:16:46.791Z,101344.81
2022-09-23T20:22:07.036Z,101315.59
2022-09-23T20:27:10.701Z,101404.41
2022-09-23T20:32:04.200Z,101404.09
2022-09-23T20:36:57.699Z,101307.50
2022-09-23T20:41:52.456Z,101404.19
2022-09-23T20:46:49.019Z,101411.31
2022-09-23T20:51:42.762Z,101414.78
2022-09-23T20:56:36.005Z,101381.69
2022-09-23T21:01:29.641Z,101407.00
2022-09-23T21:06:26.304Z,101371.41
2022-09-23T21:11:20.293Z,101408.84
2022-09-23T21:16:15.400Z,101403.00
2022-09-23T21:21:09.185Z,101389.41
2022-09-23T21:26:04.705Z,101396.84
2022-09-23T21:30:59.753Z,101419.91
2022-09-23T21:35:55.762Z,101369.09
2022-09-23T21:40:57.758Z,101378.44
2022-09-23T21:45:57.066Z,101335.44
2022-09-23T21:50:55.784Z,101369.56
2022-09-23T21:55:48.974Z,101396.78
2022-09-23T22:00:42.193Z,101419.97
2022-09-23T22:05:37.446Z,101389.09
2022-09-23T22:10:30.618Z,101414.31
2022-09-23T22:15:23.763Z,101371.94
2022-09-23T22:20:17.103Z,101397.59
2022-09-23T22:25:12.695Z,101401.47
2022-09-23T22:30:24.263Z,101399.69
2022-09-23T22:35:18.802Z,101388.81
2022-09-23T22:40:18.456Z,101348.41
2022-09-23T22:45:12.997Z,101396.84
2022-09-23T22:50:07.187Z,101380.63
2022-09-23T22:55:00.369Z,101404.06
2022-09-23T22:59:54.991Z,101408.31
2022-09-23T23:04:49.060Z,101378.88
2022-09-23T23:09:43.130Z,101398.47
2022-09-23T23:14:37.815Z,101425.75
2022-09-23T23:19:32.356Z,101423.66
2022-09-23T23:24:25.877Z,101415.03
2022-09-23T23:29:20.818Z,101401.19
2022-09-23T23:34:16.317Z,101374.00
2022-09-23T23:39:11.602Z,101387.91
2022-09-23T23:44:05.627Z,101335.66
2022-09-23T23:48:59.999Z,101377.38
2022-09-23T23:53:54.392Z,101378.13
2022-09-23T23:58:49.102Z,101399.88
